Airfield :
LOGIN :

Register | Disclaimer

   EN    FR    IT 

 










Legend :    VFR   Marginal VFR   IFR   Intensive IFR   Very Intensive IFR
Visi :
Ceiling :
>= 8 km
>= 3000ft
5 to 8 km
1000 to 3000 ft
1500m to 5 km
500 to 1000 ft
800 to 1500m
200 to 500 ft
< 800m
< 200 ft
Symbols :   Thunderstorms  Fog  Heavy snow  Heavy precipitations  Wind > 20 kt
SIGMETs :     Misc.  Thunderstorms  Icing  Turbulence  Mountain Waves  Volcanic Ashes







- Airport Elevation : 215 ft
- IATA code : ABZ
- Download approach charts


EGPD - Aberdeen / Dyce

CURRENT METAR :
  • 252120Z AUTO 33010KT 9999 SCT019 10/07 Q1029 NOSIG

EXPIRED METARs :
  • 252050Z AUTO 34013KT 9999 OVC019 11/08 Q1028
  • 252020Z AUTO 34011KT 9999 OVC018 11/08 Q1028 NOSIG
  • 251950Z AUTO 34013KT 9999 OVC017 12/08 Q1028 NOSIG
  • 251920Z AUTO 34012KT 9999 OVC015 12/09 Q1028 TEMPO BKN012
  • 251850Z AUTO 34010KT 9999 BKN015 13/09 Q1028 TEMPO BKN012

TAF TAF EGPD
Valid from the 25 at 18:00 until the 26 at 18:00 UTC


251702Z 2518/2618 33012KT 9999 SCT012
TEMPO 2518/2608 BKN012
TEMPO 2518/2521 34015G25KT
PROB30
TEMPO 2520/2524 BKN008
BECMG 2615/2618 VRB03KT
No reported NOTAMs for that airfield.



MET'MAP, your aeronautical weather chart ! - Copyright ORBIFLY December 2007 - Disclaimer

ORBIFLY MET'MAP TEAM :

Programming & Development : Alexandra Zaïnal
Concept & Development : Baudouin d'Aumeries
Co-Development & Prog : Marc-Olivier Méhu
Technical & hardware support : Manuel Goepfert

Contact : metmap@orbifly.com




SOURCES & CREDITS :

   NOAA